Time;durP1;ratioP1;P1;durP2;ratioP2;P2;SDS_P1;SDS_P2;PMS_P1;PMS_P2;Temp;Humidity;BMP_temperature;BMP_pressure;BME280_temperature;BME280_humidity;BME280_pressure;Samples;Min_cycle;Max_cycle;Signal;HPM_P1;HPM_P2
2023/02/17 05:05:24;;;;;;;1.80;1.70;;;11.20;95.90;;;;;;5753451;23;20598;-69
2023/02/17 05:07:50;;;;;;;2.50;2.17;;;11.10;96.00;;;;;;4973563;28;20198;-67
2023/02/17 05:10:16;;;;;;;2.33;2.00;;;11.10;96.20;;;;;;4975676;28;20179;-68
2023/02/17 05:12:43;;;;;;;4.97;2.20;;;11.10;96.30;;;;;;4975787;28;20213;-66
2023/02/17 05:15:09;;;;;;;2.20;2.00;;;11.10;96.50;;;;;;4975340;28;20434;-66
2023/02/17 05:17:35;;;;;;;3.60;2.67;;;11.10;96.70;;;;;;4975458;28;20422;-67
2023/02/17 05:20:00;;;;;;;2.07;1.83;;;11.00;96.70;;;;;;4973959;28;20920;-67
2023/02/17 05:22:26;;;;;;;2.60;1.80;;;11.00;96.70;;;;;;4975578;28;20178;-67
2023/02/17 05:24:52;;;;;;;2.03;1.93;;;11.00;96.70;;;;;;4975000;28;20433;-67
2023/02/17 05:27:19;;;;;;;4.47;1.90;;;11.00;96.90;;;;;;4975281;28;20439;-66
2023/02/17 05:29:44;;;;;;;2.47;2.27;;;10.90;97.00;;;;;;4975442;28;20221;-66
2023/02/17 05:32:10;;;;;;;2.20;1.67;;;10.90;97.10;;;;;;4975106;28;20454;-66
2023/02/17 05:34:36;;;;;;;2.97;2.20;;;10.90;97.10;;;;;;4974307;28;20349;-66
2023/02/17 05:37:01;;;;;;;3.50;2.27;;;10.90;97.30;;;;;;4974425;28;20165;-68
2023/02/17 05:39:28;;;;;;;2.83;1.80;;;10.90;97.50;;;;;;4975282;28;20643;-66
2023/02/17 05:41:54;;;;;;;2.20;2.03;;;10.90;97.60;;;;;;4975008;28;20181;-66
2023/02/17 05:44:19;;;;;;;2.27;2.07;;;10.90;97.60;;;;;;4974377;28;20410;-66
2023/02/17 05:46:45;;;;;;;2.07;1.80;;;10.90;97.60;;;;;;4974860;28;20674;-66
2023/02/17 05:49:10;;;;;;;3.33;2.43;;;10.90;97.80;;;;;;4974938;28;20248;-66
2023/02/17 05:51:36;;;;;;;3.03;2.83;;;10.90;97.90;;;;;;4974857;28;20526;-66
2023/02/17 05:54:02;;;;;;;2.80;1.77;;;10.90;98.00;;;;;;4974395;28;20220;-66
2023/02/17 05:56:27;;;;;;;2.50;2.30;;;10.90;98.20;;;;;;4974765;28;20432;-66
2023/02/17 05:58:53;;;;;;;3.10;2.57;;;10.90;98.20;;;;;;4974977;28;20513;-67
2023/02/17 06:01:19;;;;;;;2.20;1.80;;;10.90;98.30;;;;;;4974629;28;20193;-66
2023/02/17 06:03:44;;;;;;;2.40;2.17;;;11.00;98.30;;;;;;4973201;28;20580;-66
2023/02/17 06:06:10;;;;;;;2.83;2.50;;;11.00;98.40;;;;;;4966058;28;20247;-66
2023/02/17 06:08:36;;;;;;;3.10;2.13;;;11.00;98.50;;;;;;4974836;28;20675;-66
2023/02/17 06:11:01;;;;;;;2.80;2.33;;;11.00;98.50;;;;;;4973444;28;20204;-67
2023/02/17 06:13:27;;;;;;;3.60;2.97;;;11.00;98.60;;;;;;4974268;28;20241;-67
2023/02/17 06:15:52;;;;;;;2.60;2.07;;;11.00;98.80;;;;;;4974538;28;20253;-66
2023/02/17 06:18:18;;;;;;;2.90;2.23;;;10.90;99.00;;;;;;4974355;28;20266;-66
2023/02/17 06:20:44;;;;;;;2.70;2.13;;;10.90;99.20;;;;;;4974491;28;20174;-66
2023/02/17 06:23:10;;;;;;;4.67;2.23;;;10.90;99.50;;;;;;4974378;28;20183;-67
2023/02/17 06:25:36;;;;;;;2.83;2.45;;;10.90;99.80;;;;;;4974433;28;20213;-67
2023/02/17 06:28:02;;;;;;;2.30;2.10;;;10.90;99.90;;;;;;4974431;28;20180;-69
2023/02/17 06:30:28;;;;;;;3.38;2.38;;;10.90;99.90;;;;;;4974384;28;20231;-68
2023/02/17 06:32:53;;;;;;;4.20;2.37;;;11.00;99.90;;;;;;4974073;28;20211;-68
2023/02/17 06:35:19;;;;;;;3.13;1.90;;;11.00;99.90;;;;;;4974106;28;20560;-70
2023/02/17 06:37:44;;;;;;;4.03;2.13;;;11.00;99.90;;;;;;4974440;28;20176;-68
2023/02/17 06:40:11;;;;;;;2.33;2.20;;;11.00;99.90;;;;;;4974349;28;20170;-66
2023/02/17 06:42:36;;;;;;;2.55;2.35;;;11.10;99.90;;;;;;4974131;28;20174;-66
2023/02/17 06:45:04;;;;;;;2.30;1.80;;;11.10;99.90;;;;;;4973704;28;20193;-67
2023/02/17 06:47:31;;;;;;;1.83;1.73;;;11.10;99.90;;;;;;4973692;28;20185;-66
2023/02/17 06:49:56;;;;;;;2.40;2.20;;;11.10;99.90;;;;;;4965726;28;20418;-67
2023/02/17 06:52:22;;;;;;;2.23;2.13;;;11.20;99.90;;;;;;4954838;28;20543;-67
2023/02/17 06:54:47;;;;;;;2.83;2.60;;;11.20;99.90;;;;;;4960357;28;20709;-68
2023/02/17 06:57:15;;;;;;;3.20;2.23;;;11.30;99.90;;;;;;4973716;28;20186;-68
2023/02/17 06:59:41;;;;;;;3.40;2.00;;;11.30;99.90;;;;;;4974105;28;20178;-71
2023/02/17 07:02:11;;;;;;;2.90;2.20;;;11.30;99.90;;;;;;4972875;28;20496;-68
2023/02/17 07:04:37;;;;;;;6.63;2.90;;;11.30;99.90;;;;;;4971754;28;20182;-67
2023/02/17 07:07:02;;;;;;;3.40;2.40;;;11.30;99.90;;;;;;4972114;28;20521;-66
2023/02/17 07:09:28;;;;;;;3.33;2.17;;;11.40;99.90;;;;;;4973149;28;20503;-66
2023/02/17 07:11:54;;;;;;;3.10;2.47;;;11.40;99.90;;;;;;4971637;28;20257;-67
2023/02/17 07:14:19;;;;;;;2.53;2.20;;;11.40;99.90;;;;;;4972926;28;20177;-67
2023/02/17 07:16:45;;;;;;;1.63;1.53;;;11.50;99.90;;;;;;4972703;28;20198;-67
2023/02/17 07:19:10;;;;;;;2.50;2.30;;;11.50;99.90;;;;;;4973798;28;20619;-65
2023/02/17 07:21:36;;;;;;;11.03;2.83;;;11.40;99.90;;;;;;4974012;28;20174;-65
2023/02/17 07:24:01;;;;;;;1.83;1.73;;;11.40;99.90;;;;;;4973668;28;20224;-65
2023/02/17 07:26:27;;;;;;;8.27;3.27;;;11.50;99.90;;;;;;4973779;28;20661;-66
2023/02/17 07:28:53;;;;;;;2.13;1.93;;;11.50;99.90;;;;;;4974037;28;20235;-66
2023/02/17 07:31:18;;;;;;;2.13;2.03;;;11.60;99.90;;;;;;4977289;28;20575;-66
2023/02/17 07:33:46;;;;;;;2.80;2.50;;;11.60;99.90;;;;;;4977033;28;20179;-66
2023/02/17 07:36:14;;;;;;;3.10;2.50;;;11.60;99.90;;;;;;4977370;28;20264;-65
2023/02/17 07:38:40;;;;;;;2.13;1.90;;;11.60;99.90;;;;;;4977665;28;20828;-65
2023/02/17 07:41:20;;;;;;;2.10;2.00;;;11.60;99.90;;;;;;4977337;28;20421;-64
2023/02/17 07:43:47;;;;;;;2.77;2.50;;;11.70;99.90;;;;;;4976958;28;20453;-65
2023/02/17 07:46:13;;;;;;;3.40;2.80;;;11.70;99.90;;;;;;4977222;28;20465;-66
2023/02/17 07:48:38;;;;;;;2.83;1.67;;;11.70;99.90;;;;;;4976812;28;20421;-65
2023/02/17 07:51:12;;;;;;;2.20;1.70;;;11.80;99.90;;;;;;4975835;28;20458;-66
2023/02/17 07:53:38;;;;;;;4.40;2.43;;;11.80;99.90;;;;;;4976737;28;20171;-65
2023/02/17 07:56:06;;;;;;;2.13;2.03;;;11.90;99.90;;;;;;4976826;28;20450;-66
2023/02/17 07:58:33;;;;;;;6.80;1.70;;;11.90;99.90;;;;;;4976583;28;20186;-65
2023/02/17 08:01:14;;;;;;;2.10;1.90;;;11.90;99.90;;;;;;4975565;28;20424;-64
2023/02/17 08:03:40;;;;;;;3.67;2.10;;;11.90;99.90;;;;;;4976608;28;20417;-65
2023/02/17 08:06:14;;;;;;;2.47;1.77;;;12.00;99.90;;;;;;4976460;28;20935;-65
2023/02/17 08:14:08;;;;;;;2.13;2.03;;;11.90;99.90;;;;;;4976373;28;20456;-61
2023/02/17 08:16:34;;;;;;;1.87;1.77;;;12.00;99.90;;;;;;4975287;28;20438;-66
2023/02/17 08:18:59;;;;;;;8.03;1.90;;;12.00;99.90;;;;;;4975330;28;20734;-66
2023/02/17 08:21:26;;;;;;;1.17;1.13;;;12.10;99.90;;;;;;4976338;28;20519;-65
2023/02/17 08:23:53;;;;;;;2.23;1.80;;;12.10;99.90;;;;;;4976012;28;20229;-65
2023/02/17 08:26:19;;;;;;;1.97;1.87;;;12.20;99.90;;;;;;4976501;28;20968;-65
2023/02/17 08:28:45;;;;;;;1.60;1.50;;;12.30;99.90;;;;;;4976591;28;20781;-65
2023/02/17 08:31:30;;;;;;;1.93;1.70;;;12.40;99.90;;;;;;4976182;28;20421;-65
2023/02/17 08:33:56;;;;;;;6.27;1.50;;;12.40;99.90;;;;;;4976034;28;20409;-65
2023/02/17 08:36:23;;;;;;;1.77;1.67;;;12.50;99.90;;;;;;4976173;28;20883;-65
2023/02/17 08:38:50;;;;;;;2.13;1.80;;;12.50;99.90;;;;;;4976247;28;20781;-65
2023/02/17 08:41:22;;;;;;;2.30;1.57;;;12.60;99.90;;;;;;4975179;28;20407;-64
2023/02/17 08:43:48;;;;;;;2.23;1.70;;;12.50;99.90;;;;;;4975825;28;20411;-65
2023/02/17 08:46:15;;;;;;;2.70;1.77;;;12.50;99.90;;;;;;4974765;28;20433;-65
2023/02/17 08:48:41;;;;;;;2.27;2.10;;;12.50;99.90;;;;;;4974659;28;20430;-65
2023/02/17 08:51:07;;;;;;;2.10;1.50;;;12.50;99.90;;;;;;4975696;28;20418;-64
2023/02/17 08:53:33;;;;;;;1.90;1.80;;;12.50;99.90;;;;;;4975797;28;20510;-64
2023/02/17 08:55:59;;;;;;;2.40;1.43;;;12.50;99.90;;;;;;4975950;28;20194;-62
2023/02/17 08:58:25;;;;;;;1.57;1.47;;;12.60;99.90;;;;;;4976574;28;20534;-64
2023/02/17 09:00:50;;;;;;;2.40;1.80;;;12.60;99.90;;;;;;4976450;28;20183;-62
2023/02/17 09:03:16;;;;;;;1.90;1.60;;;12.60;99.90;;;;;;4975178;28;20533;-64
2023/02/17 09:05:42;;;;;;;1.87;1.77;;;12.70;99.90;;;;;;4975344;28;20289;-62
2023/02/17 09:08:09;;;;;;;2.37;2.10;;;12.80;99.90;;;;;;4975578;28;20567;-63
2023/02/17 09:10:35;;;;;;;2.00;1.90;;;12.80;99.90;;;;;;4975585;28;20183;-65
2023/02/17 09:13:01;;;;;;;2.73;1.90;;;12.80;99.90;;;;;;4975354;28;20511;-64
2023/02/17 09:15:27;;;;;;;1.60;1.50;;;12.80;99.90;;;;;;4975542;28;20960;-64
2023/02/17 09:17:52;;;;;;;1.70;1.60;;;12.90;99.90;;;;;;4975348;28;20184;-64
2023/02/17 09:20:19;;;;;;;1.30;1.20;;;12.80;99.90;;;;;;4975621;28;20188;-65
2023/02/17 09:22:44;;;;;;;1.90;1.57;;;12.80;99.90;;;;;;4975645;28;20175;-65
2023/02/17 09:25:10;;;;;;;1.20;1.20;;;12.80;99.90;;;;;;4974933;28;20438;-62
2023/02/17 09:27:35;;;;;;;1.50;1.37;;;12.70;99.90;;;;;;4975510;28;20663;-65
2023/02/17 09:30:01;;;;;;;1.63;1.53;;;12.70;99.90;;;;;;4975209;28;20198;-64
2023/02/17 09:32:27;;;;;;;1.63;1.27;;;12.60;99.90;;;;;;4975496;28;20530;-64
2023/02/17 09:34:52;;;;;;;1.60;1.50;;;12.60;99.90;;;;;;4974724;28;20273;-65
2023/02/17 09:37:18;;;;;;;2.40;1.50;;;12.60;99.90;;;;;;4975215;28;20180;-64
2023/02/17 09:39:45;;;;;;;3.17;1.73;;;12.60;99.90;;;;;;4974988;28;20175;-65
2023/02/17 09:42:21;;;;;;;1.57;1.47;;;12.60;99.90;;;;;;4975030;28;20505;-64
2023/02/17 09:45:02;;;;;;;2.20;1.97;;;12.70;99.90;;;;;;4974555;28;20454;-65
2023/02/17 09:47:46;;;;;;;1.50;1.20;;;12.80;99.90;;;;;;4973662;28;20423;-64
2023/02/17 09:50:20;;;;;;;9.43;1.60;;;12.90;99.90;;;;;;4973881;28;20813;-66
2023/02/17 09:52:52;;;;;;;2.50;1.80;;;12.90;99.90;;;;;;4974370;28;20451;-66
2023/02/17 09:55:23;;;;;;;1.50;1.40;;;13.00;99.90;;;;;;4974876;28;20461;-65
2023/02/17 09:58:01;;;;;;;5.33;1.77;;;13.10;99.90;;;;;;4974945;28;20403;-66
2023/02/17 10:00:32;;;;;;;1.97;1.40;;;13.30;99.90;;;;;;4974777;28;20491;-65
2023/02/17 10:03:09;;;;;;;4.37;2.07;;;13.40;99.90;;;;;;4973052;28;20426;-66
2023/02/17 10:05:44;;;;;;;1.10;1.10;;;13.40;99.90;;;;;;4974674;28;20834;-65
2023/02/17 10:08:15;;;;;;;2.87;1.60;;;13.40;99.90;;;;;;4955381;28;20427;-68
2023/02/17 10:10:44;;;;;;;1.43;1.33;;;13.50;99.90;;;;;;4955379;28;20770;-67
2023/02/17 10:13:14;;;;;;;1.83;1.50;;;13.60;99.90;;;;;;4955020;28;21303;-67
2023/02/17 10:15:45;;;;;;;5.47;1.40;;;13.80;99.90;;;;;;4955253;28;20431;-67
2023/02/17 10:18:33;;;;;;;1.80;1.50;;;14.10;99.90;;;;;;4955269;28;20825;-67
2023/02/17 10:21:10;;;;;;;4.70;1.53;;;14.50;99.90;;;;;;4960073;28;20528;-67
2023/02/17 10:23:36;;;;;;;2.37;1.70;;;14.70;99.90;;;;;;4974167;28;20423;-67
2023/02/17 10:26:10;;;;;;;1.57;1.37;;;14.90;99.90;;;;;;4973748;28;20439;-65
2023/02/17 10:29:16;;;;;;;1.50;1.40;;;15.20;99.90;;;;;;4971977;28;20451;-66
2023/02/17 10:31:59;;;;;;;2.20;1.23;;;15.40;99.90;;;;;;4944899;28;20475;-65
2023/02/17 10:34:47;;;;;;;1.30;1.30;;;15.40;99.90;;;;;;4984778;28;20436;-65
2023/02/17 10:37:19;;;;;;;2.00;1.80;;;15.60;99.90;;;;;;4955241;28;20418;-64
2023/02/17 10:39:54;;;;;;;0.77;0.77;;;15.70;99.90;;;;;;4974434;28;20415;-65
2023/02/17 10:42:28;;;;;;;1.80;1.50;;;15.90;99.90;;;;;;4957327;28;20547;-65
2023/02/17 10:45:11;;;;;;;1.47;1.07;;;16.20;99.90;;;;;;4970091;28;20498;-66
2023/02/17 10:47:38;;;;;;;2.00;1.30;;;16.60;99.90;;;;;;4957140;28;20415;-65
2023/02/17 10:50:15;;;;;;;1.00;1.00;;;17.40;99.40;;;;;;4970224;28;20478;-66
2023/02/17 10:52:41;;;;;;;1.77;1.60;;;18.00;98.00;;;;;;4973047;28;20990;-66
2023/02/17 10:55:28;;;;;;;1.57;1.37;;;18.30;97.50;;;;;;4973947;28;20527;-66
2023/02/17 10:58:04;;;;;;;1.27;1.17;;;18.70;96.70;;;;;;4974290;28;20191;-63
2023/02/17 11:00:30;;;;;;;1.30;1.30;;;19.10;96.00;;;;;;4974073;28;20389;-62
2023/02/17 11:02:55;;;;;;;1.20;1.07;;;19.20;95.30;;;;;;4973587;28;20979;-63
2023/02/17 11:05:21;;;;;;;1.17;1.17;;;19.10;95.20;;;;;;4974185;28;20217;-63
2023/02/17 11:07:51;;;;;;;1.33;1.30;;;18.90;95.10;;;;;;4977664;28;20815;-66
2023/02/17 11:10:25;;;;;;;1.10;1.10;;;18.60;95.30;;;;;;4977964;28;20187;-64
2023/02/17 11:12:51;;;;;;;1.37;0.90;;;18.20;95.80;;;;;;4977379;28;20809;-67
2023/02/17 11:15:19;;;;;;;1.30;1.20;;;17.70;96.00;;;;;;4976887;28;20450;-63
2023/02/17 11:17:46;;;;;;;1.50;1.40;;;17.40;96.70;;;;;;4966377;28;20195;-65
2023/02/17 11:20:14;;;;;;;2.50;1.43;;;17.30;97.20;;;;;;4977714;28;20383;-63
2023/02/17 11:22:44;;;;;;;1.30;1.10;;;17.10;97.20;;;;;;4974026;28;20537;-64
2023/02/17 11:25:21;;;;;;;1.20;1.00;;;17.00;97.50;;;;;;4958101;28;20795;-64
2023/02/17 11:27:58;;;;;;;1.13;1.13;;;16.70;97.90;;;;;;4958142;29;20433;-65
2023/02/17 11:30:26;;;;;;;1.13;1.10;;;16.40;98.20;;;;;;4960665;28;20952;-65
2023/02/17 11:32:53;;;;;;;1.23;1.23;;;16.20;98.70;;;;;;4966086;28;20474;-66
2023/02/17 11:35:36;;;;;;;1.13;1.03;;;16.00;99.40;;;;;;4962121;28;20884;-64
2023/02/17 11:38:10;;;;;;;1.33;1.23;;;15.80;99.70;;;;;;4974337;28;20444;-65
2023/02/17 11:40:35;;;;;;;1.60;1.13;;;15.70;99.90;;;;;;4968176;28;20496;-65
2023/02/17 11:43:03;;;;;;;0.90;0.90;;;15.50;99.90;;;;;;4972914;28;20430;-65
2023/02/17 11:45:42;;;;;;;0.80;0.73;;;15.40;99.90;;;;;;4976680;28;20334;-64
2023/02/17 11:48:35;;;;;;;0.90;0.90;;;15.20;99.90;;;;;;4975936;28;20432;-64
2023/02/17 11:51:16;;;;;;;2.23;0.87;;;15.10;99.90;;;;;;4957689;28;20405;-64
2023/02/17 11:54:13;;;;;;;0.70;0.70;;;14.90;99.90;;;;;;4974761;28;20424;-65
2023/02/17 11:56:52;;;;;;;1.00;0.77;;;14.80;99.90;;;;;;4977042;28;20468;-66
2023/02/17 11:59:43;;;;;;;1.40;1.30;;;14.70;99.90;;;;;;4975670;28;20779;-66
2023/02/17 12:02:44;;;;;;;6.17;1.10;;;14.80;99.90;;;;;;4965378;28;20424;-66
2023/02/17 12:05:28;;;;;;;0.80;0.80;;;14.80;99.90;;;;;;4925368;28;20931;-66
2023/02/17 12:08:02;;;;;;;0.83;0.83;;;14.70;99.90;;;;;;4966924;28;20547;-66
2023/02/17 12:10:37;;;;;;;1.10;1.00;;;14.70;99.90;;;;;;4968024;28;20420;-65
2023/02/17 12:13:12;;;;;;;1.60;1.00;;;14.70;99.90;;;;;;4969414;28;20458;-69
2023/02/17 12:16:17;;;;;;;1.10;1.10;;;14.70;99.90;;;;;;4968499;28;20443;-65
2023/02/17 12:19:00;;;;;;;1.00;1.00;;;14.70;99.90;;;;;;4961717;28;20434;-66
2023/02/17 12:21:44;;;;;;;0.87;0.87;;;14.70;99.90;;;;;;4971292;28;20430;-66
2023/02/17 12:24:37;;;;;;;3.60;0.93;;;14.70;99.90;;;;;;4956894;29;20420;-66
2023/02/17 12:27:37;;;;;;;1.90;0.97;;;14.70;99.90;;;;;;4957162;28;20410;-68
2023/02/17 12:30:06;;;;;;;0.83;0.83;;;14.70;99.90;;;;;;4949526;28;20435;-66
2023/02/17 12:32:37;;;;;;;1.10;1.10;;;14.70;99.90;;;;;;4976317;28;20538;-66
2023/02/17 12:35:23;;;;;;;3.47;1.10;;;14.70;99.90;;;;;;4974681;28;20486;-65
2023/02/17 12:37:51;;;;;;;1.90;1.00;;;14.60;99.90;;;;;;4976291;28;20487;-68
2023/02/17 12:40:57;;;;;;;1.00;1.00;;;14.60;99.90;;;;;;4976424;28;20407;-67
2023/02/17 12:43:38;;;;;;;1.30;1.20;;;14.60;99.90;;;;;;4971301;28;20951;-66
2023/02/17 12:46:09;;;;;;;3.80;0.97;;;14.50;99.90;;;;;;4975918;28;20590;-65
2023/02/17 12:48:54;;;;;;;1.73;1.63;;;14.50;99.90;;;;;;4974664;28;20434;-65
2023/02/17 12:51:30;;;;;;;1.90;1.10;;;14.60;99.90;;;;;;4975461;28;20448;-65
2023/02/17 12:54:10;;;;;;;0.63;0.63;;;14.60;99.90;;;;;;4974981;28;20511;-64
2023/02/17 12:56:45;;;;;;;0.90;0.90;;;14.70;99.90;;;;;;4975697;28;20446;-65
2023/02/17 12:59:22;;;;;;;1.40;1.30;;;14.70;99.90;;;;;;4975664;28;20419;-65
2023/02/17 13:01:57;;;;;;;2.30;2.20;;;14.80;99.90;;;;;;4975749;28;20780;-65
2023/02/17 13:04:25;;;;;;;4.00;0.90;;;14.80;99.90;;;;;;4975117;28;20515;-63
2023/02/17 13:06:59;;;;;;;3.33;1.07;;;14.90;99.90;;;;;;4975182;28;20503;-64
2023/02/17 13:09:35;;;;;;;1.43;0.93;;;14.90;99.90;;;;;;4975039;28;20431;-64
2023/02/17 13:12:21;;;;;;;0.83;0.83;;;14.90;99.90;;;;;;4974979;28;20467;-65
2023/02/17 13:14:56;;;;;;;0.90;0.90;;;14.80;99.90;;;;;;4975135;28;20522;-70
2023/02/17 13:17:38;;;;;;;0.73;0.73;;;14.80;99.90;;;;;;4956120;28;20412;-69
2023/02/17 13:20:23;;;;;;;1.00;0.90;;;14.80;99.90;;;;;;4956333;28;20387;-69
2023/02/17 13:22:49;;;;;;;2.73;1.10;;;14.70;99.90;;;;;;4962374;28;20458;-67
2023/02/17 13:25:29;;;;;;;1.20;1.10;;;14.70;99.90;;;;;;4975114;28;20514;-64
2023/02/17 13:27:59;;;;;;;0.63;0.63;;;14.70;99.90;;;;;;4963920;28;20179;-66
2023/02/17 13:30:40;;;;;;;0.70;0.70;;;14.80;99.90;;;;;;4975352;28;20419;-66
2023/02/17 13:33:14;;;;;;;1.70;1.27;;;14.80;99.90;;;;;;4974422;28;20513;-65
2023/02/17 13:35:40;;;;;;;0.60;0.60;;;14.80;99.90;;;;;;4974533;28;20435;-67
2023/02/17 13:38:08;;;;;;;0.80;0.80;;;14.80;99.90;;;;;;4974821;28;20502;-65
2023/02/17 13:40:39;;;;;;;2.60;0.97;;;14.80;99.90;;;;;;4971936;28;20547;-66
2023/02/17 13:43:18;;;;;;;2.70;1.30;;;14.90;99.90;;;;;;4970036;28;20793;-66
2023/02/17 13:45:59;;;;;;;0.90;0.90;;;14.90;99.90;;;;;;4953772;28;20882;-67
2023/02/17 13:48:30;;;;;;;1.23;1.03;;;14.90;99.90;;;;;;4964204;28;20424;-68
2023/02/17 13:50:58;;;;;;;0.70;0.70;;;14.90;99.90;;;;;;4965076;28;20429;-65
2023/02/17 13:53:33;;;;;;;2.33;1.00;;;15.00;99.90;;;;;;4953369;28;20460;-67
2023/02/17 13:56:02;;;;;;;6.03;0.90;;;15.10;99.90;;;;;;4968855;28;20476;-66
2023/02/17 13:58:34;;;;;;;0.80;0.80;;;15.10;99.90;;;;;;4972692;28;20447;-67
2023/02/17 14:01:01;;;;;;;1.90;0.87;;;15.20;99.90;;;;;;4973240;28;20418;-66
2023/02/17 14:03:40;;;;;;;0.67;0.67;;;15.20;99.90;;;;;;4972945;28;20427;-65
2023/02/17 14:06:11;;;;;;;3.50;0.87;;;15.20;99.90;;;;;;4959664;28;20459;-66
2023/02/17 14:08:39;;;;;;;2.50;1.73;;;15.20;99.90;;;;;;4973851;28;20398;-67
2023/02/17 14:11:15;;;;;;;1.50;0.63;;;15.20;99.90;;;;;;4974639;28;20428;-67
2023/02/17 14:13:44;;;;;;;1.47;0.90;;;15.20;99.90;;;;;;4972991;28;20454;-65
2023/02/17 14:16:40;;;;;;;0.67;0.67;;;15.20;99.90;;;;;;4974662;28;20511;-67
2023/02/17 14:19:11;;;;;;;1.87;1.20;;;15.20;99.90;;;;;;4974228;28;20503;-66
2023/02/17 14:21:39;;;;;;;0.83;0.80;;;15.30;99.90;;;;;;4973963;28;20550;-64
2023/02/17 14:24:05;;;;;;;0.90;0.90;;;15.40;99.90;;;;;;4974250;28;20405;-67
2023/02/17 14:26:45;;;;;;;3.60;0.80;;;15.50;99.90;;;;;;4972696;28;20552;-64
2023/02/17 14:29:12;;;;;;;1.27;1.00;;;15.50;99.90;;;;;;4974581;28;20404;-65
2023/02/17 14:31:44;;;;;;;0.83;0.83;;;15.60;99.90;;;;;;4972887;28;20436;-65
2023/02/17 14:34:19;;;;;;;0.90;0.60;;;15.60;99.90;;;;;;4973725;28;20452;-64
2023/02/17 14:36:45;;;;;;;1.23;1.13;;;15.70;99.90;;;;;;4974474;28;20399;-66
2023/02/17 14:39:13;;;;;;;1.80;1.10;;;15.70;99.90;;;;;;4974689;28;20408;-66
2023/02/17 14:41:39;;;;;;;0.67;0.67;;;15.60;99.90;;;;;;4978524;28;20204;-66
2023/02/17 14:44:05;;;;;;;0.70;0.70;;;15.50;99.90;;;;;;4977512;28;20502;-66
2023/02/17 14:46:31;;;;;;;1.07;1.00;;;15.50;99.90;;;;;;4977341;28;20557;-65
2023/02/17 14:48:57;;;;;;;1.00;1.00;;;15.40;99.90;;;;;;4977958;28;20424;-64
2023/02/17 14:51:29;;;;;;;1.60;1.03;;;15.20;99.90;;;;;;4978080;28;20930;-64
2023/02/17 14:53:55;;;;;;;1.30;1.17;;;15.10;99.90;;;;;;4972113;28;20177;-65
2023/02/17 14:56:28;;;;;;;2.00;1.53;;;15.00;99.90;;;;;;4958616;28;20950;-66
2023/02/17 14:58:54;;;;;;;2.00;1.30;;;15.00;99.90;;;;;;4968711;28;20419;-66
2023/02/17 15:01:22;;;;;;;0.93;0.93;;;15.00;99.90;;;;;;4977275;28;20402;-65
2023/02/17 15:03:48;;;;;;;1.03;0.97;;;15.00;99.90;;;;;;4974042;28;20271;-67
2023/02/17 15:06:26;;;;;;;1.17;1.17;;;15.00;99.90;;;;;;4978153;28;20480;-65
2023/02/17 15:08:52;;;;;;;8.47;1.43;;;15.00;99.90;;;;;;4977791;28;20427;-65
2023/02/17 15:11:27;;;;;;;0.90;0.90;;;15.10;99.90;;;;;;4977824;28;20418;-65
2023/02/17 15:13:53;;;;;;;1.10;0.90;;;15.10;99.90;;;;;;4976645;28;20462;-65
2023/02/17 15:16:18;;;;;;;1.03;1.00;;;15.10;99.90;;;;;;4977386;28;20961;-65
2023/02/17 15:18:44;;;;;;;1.40;1.30;;;15.00;99.90;;;;;;4977305;28;20184;-65
2023/02/17 15:21:18;;;;;;;1.20;1.10;;;14.90;99.90;;;;;;4958305;29;20181;-65
2023/02/17 15:23:43;;;;;;;1.50;1.50;;;14.80;99.90;;;;;;4967721;28;20168;-66
2023/02/17 15:26:11;;;;;;;1.47;1.37;;;14.80;99.90;;;;;;4977275;28;20496;-66
2023/02/17 15:28:36;;;;;;;1.60;1.50;;;14.70;99.90;;;;;;4969868;28;20180;-66
2023/02/17 15:31:02;;;;;;;3.43;1.70;;;14.70;99.90;;;;;;4977548;28;20838;-66
2023/02/17 15:33:28;;;;;;;1.80;1.70;;;14.60;99.90;;;;;;4976932;28;20200;-64
2023/02/17 15:35:55;;;;;;;1.70;1.60;;;14.60;99.90;;;;;;4975402;28;20532;-65
2023/02/17 15:38:22;;;;;;;2.17;2.00;;;14.60;99.90;;;;;;4976361;28;20752;-64
2023/02/17 15:40:47;;;;;;;1.30;1.20;;;14.50;99.90;;;;;;4976637;28;20422;-66
2023/02/17 15:43:20;;;;;;;3.57;2.10;;;14.50;99.90;;;;;;4976371;28;20922;-63
2023/02/17 15:45:45;;;;;;;1.10;1.10;;;14.50;99.90;;;;;;4977232;28;20535;-65
2023/02/17 15:48:23;;;;;;;1.50;1.40;;;14.40;99.90;;;;;;4975625;28;20435;-65
2023/02/17 15:50:50;;;;;;;1.37;1.27;;;14.40;99.90;;;;;;4975405;28;20186;-65
2023/02/17 15:53:15;;;;;;;1.70;1.60;;;14.40;99.90;;;;;;4976039;28;20530;-65
2023/02/17 15:55:41;;;;;;;1.33;1.30;;;14.30;99.90;;;;;;4975286;28;20474;-64
2023/02/17 15:58:14;;;;;;;1.63;1.53;;;14.30;99.90;;;;;;4976666;28;20251;-66
2023/02/17 16:00:40;;;;;;;2.07;1.87;;;14.20;99.90;;;;;;4976373;28;20478;-64
2023/02/17 16:03:05;;;;;;;3.90;1.83;;;14.10;99.90;;;;;;4975854;28;20423;-66
2023/02/17 16:05:32;;;;;;;2.50;1.80;;;14.10;99.90;;;;;;4975758;28;20287;-66
2023/02/17 16:07:58;;;;;;;2.00;1.90;;;14.00;99.90;;;;;;4975826;28;20184;-67
2023/02/17 16:10:28;;;;;;;1.57;1.47;;;14.00;99.90;;;;;;4975124;28;20506;-67
2023/02/17 16:12:56;;;;;;;3.67;2.00;;;13.90;99.90;;;;;;4973556;28;20208;-65
2023/02/17 16:15:23;;;;;;;2.13;1.93;;;13.90;99.90;;;;;;4976010;28;20522;-67
2023/02/17 16:17:49;;;;;;;1.50;1.23;;;13.80;99.90;;;;;;4974008;28;20433;-65
2023/02/17 16:20:21;;;;;;;1.50;1.40;;;13.70;99.90;;;;;;4966591;28;20423;-63
2023/02/17 16:22:47;;;;;;;1.10;1.00;;;13.70;99.90;;;;;;4970333;28;20444;-65
2023/02/17 16:25:15;;;;;;;1.50;1.40;;;13.70;99.90;;;;;;4973457;28;20446;-64
2023/02/17 16:27:42;;;;;;;2.27;1.97;;;13.70;99.90;;;;;;4973908;28;20436;-70
2023/02/17 16:30:27;;;;;;;1.17;1.17;;;13.70;99.90;;;;;;4971939;28;21003;-65
2023/02/17 16:32:53;;;;;;;1.60;1.50;;;13.70;99.90;;;;;;4975712;28;20511;-67
2023/02/17 16:35:22;;;;;;;1.40;1.30;;;13.70;99.90;;;;;;4973817;28;20441;-67
2023/02/17 16:37:52;;;;;;;1.90;1.80;;;13.70;99.90;;;;;;4976040;28;20185;-66
2023/02/17 16:40:21;;;;;;;1.43;1.33;;;13.60;99.90;;;;;;4974825;28;20931;-65
2023/02/17 16:42:47;;;;;;;1.40;1.30;;;13.60;99.90;;;;;;4974649;28;20430;-66
2023/02/17 16:45:19;;;;;;;1.43;1.33;;;13.60;99.90;;;;;;4973616;28;20457;-69
2023/02/17 16:47:48;;;;;;;2.57;1.73;;;13.60;99.90;;;;;;4975750;28;20425;-67
2023/02/17 16:50:34;;;;;;;1.30;1.30;;;13.60;99.90;;;;;;4975457;28;20447;-65
2023/02/17 16:53:05;;;;;;;2.00;1.83;;;13.60;99.90;;;;;;4975112;28;20461;-69
2023/02/17 16:55:33;;;;;;;1.47;1.30;;;13.60;99.90;;;;;;4975053;28;20450;-67
2023/02/17 16:57:59;;;;;;;1.97;1.80;;;13.60;99.90;;;;;;4973889;28;20509;-69
2023/02/17 17:00:30;;;;;;;2.50;1.70;;;13.60;99.90;;;;;;4973822;28;20445;-67
2023/02/17 17:02:57;;;;;;;2.60;1.70;;;13.60;99.90;;;;;;4972010;28;20809;-67
2023/02/17 17:05:25;;;;;;;1.43;1.33;;;13.60;99.90;;;;;;4974815;28;21032;-69
2023/02/17 17:07:51;;;;;;;1.90;1.80;;;13.60;99.90;;;;;;4973838;28;20781;-66
2023/02/17 17:10:20;;;;;;;2.23;1.60;;;13.70;99.90;;;;;;4974671;28;20438;-68
2023/02/17 17:12:46;;;;;;;2.40;2.03;;;13.70;99.90;;;;;;4975111;28;20239;-69
2023/02/17 17:15:13;;;;;;;1.80;1.70;;;13.70;99.90;;;;;;4974370;28;20962;-70
2023/02/17 17:17:49;;;;;;;6.63;1.90;;;13.70;99.90;;;;;;4974764;28;20472;-71
2023/02/17 17:20:17;;;;;;;1.67;1.37;;;13.70;99.90;;;;;;4974775;28;20426;-68
2023/02/17 17:22:45;;;;;;;2.50;2.10;;;13.70;99.90;;;;;;4975553;28;20793;-68
2023/02/17 17:25:11;;;;;;;1.60;1.50;;;13.70;99.90;;;;;;4974500;28;20453;-67
2023/02/17 17:27:37;;;;;;;1.37;1.30;;;13.70;99.90;;;;;;4975272;28;20430;-66
2023/02/17 17:30:05;;;;;;;1.60;1.50;;;13.70;99.90;;;;;;4974752;28;20933;-65
2023/02/17 17:32:31;;;;;;;1.43;1.33;;;13.60;99.90;;;;;;4974846;28;20216;-66
2023/02/17 17:34:57;;;;;;;1.97;1.87;;;13.70;99.90;;;;;;4974424;28;20450;-69
2023/02/17 17:37:23;;;;;;;1.40;1.30;;;13.70;99.90;;;;;;4973485;28;20412;-70
2023/02/17 17:39:48;;;;;;;1.93;1.77;;;13.70;99.90;;;;;;4975075;28;20183;-67
2023/02/17 17:42:14;;;;;;;1.77;1.67;;;13.70;99.90;;;;;;4968645;28;20191;-66
2023/02/17 17:44:40;;;;;;;1.97;1.70;;;13.70;99.90;;;;;;4970826;28;20210;-69
2023/02/17 17:47:12;;;;;;;1.80;1.70;;;13.70;99.90;;;;;;4969378;28;20424;-70
2023/02/17 17:49:38;;;;;;;3.30;1.60;;;13.70;99.90;;;;;;4967707;28;20426;-70
2023/02/17 17:52:03;;;;;;;2.53;1.80;;;13.70;99.90;;;;;;4974755;28;20485;-70
2023/02/17 17:54:29;;;;;;;1.70;1.57;;;13.70;99.90;;;;;;4974291;28;20194;-69
2023/02/17 17:56:55;;;;;;;1.83;1.60;;;13.70;99.90;;;;;;4974831;28;20171;-73
2023/02/17 17:59:20;;;;;;;1.70;1.60;;;13.70;99.90;;;;;;4974421;28;20358;-68
2023/02/17 18:01:46;;;;;;;3.70;1.80;;;13.70;99.90;;;;;;4974470;28;20184;-70
2023/02/17 18:04:11;;;;;;;3.80;1.70;;;13.70;99.90;;;;;;4974325;28;20527;-69
2023/02/17 18:06:44;;;;;;;3.30;1.60;;;13.70;99.90;;;;;;4974521;28;20222;-67
2023/02/17 18:09:13;;;;;;;1.83;1.63;;;13.70;99.90;;;;;;4974389;28;20183;-68
2023/02/17 18:11:41;;;;;;;1.50;1.40;;;13.70;99.90;;;;;;4974638;28;20738;-67
2023/02/17 18:14:09;;;;;;;2.10;1.80;;;13.60;99.90;;;;;;4972526;28;20797;-64